createdAt,value
2022-10-05T00:00:06.418Z,4.32
2022-10-05T00:02:33.358Z,4.03
2022-10-05T00:05:00.271Z,4.43
2022-10-05T00:07:30.105Z,4.10
2022-10-05T00:09:59.300Z,3.60
2022-10-05T00:12:28.335Z,3.88
2022-10-05T00:14:59.611Z,3.72
2022-10-05T00:17:29.025Z,3.42
2022-10-05T00:19:55.841Z,3.70
2022-10-05T00:22:33.653Z,3.33
2022-10-05T00:25:03.159Z,3.47
2022-10-05T00:27:37.502Z,3.05
2022-10-05T00:30:21.251Z,3.47
2022-10-05T00:32:48.438Z,2.97
2022-10-05T00:35:17.540Z,3.10
2022-10-05T00:37:45.699Z,3.42
2022-10-05T00:40:33.126Z,3.13
2022-10-05T00:43:08.927Z,2.80
2022-10-05T00:45:45.446Z,3.00
2022-10-05T00:48:22.438Z,2.90
2022-10-05T00:51:01.198Z,3.33
2022-10-05T00:53:43.376Z,3.40
2022-10-05T00:56:28.142Z,3.78
2022-10-05T00:59:29.111Z,3.42
2022-10-05T01:02:21.849Z,3.88
2022-10-05T01:04:54.072Z,3.70
2022-10-05T01:07:32.537Z,3.22
2022-10-05T01:10:25.227Z,3.55
2022-10-05T01:13:10.842Z,3.47
2022-10-05T01:16:11.042Z,4.00
2022-10-05T01:19:03.174Z,4.63
2022-10-05T01:21:37.605Z,4.80
2022-10-05T01:24:40.513Z,5.22
2022-10-05T01:27:10.247Z,5.13
2022-10-05T01:30:09.845Z,4.88
2022-10-05T01:32:45.596Z,4.22
2022-10-05T01:35:43.683Z,4.50
2022-10-05T01:38:15.888Z,3.78
2022-10-05T01:40:48.687Z,3.67
2022-10-05T01:43:28.435Z,4.10
2022-10-05T01:46:34.053Z,4.32
2022-10-05T01:49:19.413Z,3.50
2022-10-05T01:52:22.878Z,3.00
2022-10-05T01:55:27.987Z,3.60
2022-10-05T01:58:00.676Z,3.13
2022-10-05T02:00:29.902Z,2.90
2022-10-05T02:03:17.877Z,3.00
2022-10-05T02:05:49.043Z,2.70
2022-10-05T02:08:23.892Z,3.03
2022-10-05T02:11:05.242Z,2.72
2022-10-05T02:13:44.161Z,3.03
2022-10-05T02:16:17.684Z,3.58
2022-10-05T02:18:56.834Z,3.22
2022-10-05T02:21:24.570Z,3.92
2022-10-05T02:23:56.647Z,4.32
2022-10-05T02:28:59.535Z,3.72
2022-10-05T02:31:31.194Z,3.50
2022-10-05T02:34:31.024Z,3.22
2022-10-05T02:37:03.870Z,3.35
2022-10-05T02:39:43.885Z,3.53
2022-10-05T02:42:14.617Z,3.10
2022-10-05T02:45:08.808Z,2.75
2022-10-05T02:47:53.492Z,3.47
2022-10-05T02:50:39.049Z,3.17
2022-10-05T02:53:42.972Z,3.05
2022-10-05T02:56:26.415Z,3.40
2022-10-05T02:59:07.044Z,3.55
2022-10-05T03:01:41.165Z,4.18
2022-10-05T03:04:21.118Z,4.38
2022-10-05T03:06:57.427Z,4.82
2022-10-05T03:09:28.968Z,5.90
2022-10-05T03:12:11.401Z,6.35
2022-10-05T03:14:44.518Z,5.25
2022-10-05T03:17:22.305Z,5.25
2022-10-05T03:20:31.082Z,4.30
2022-10-05T03:23:04.782Z,5.05
2022-10-05T03:26:07.626Z,5.38
2022-10-05T03:28:44.385Z,4.50
2022-10-05T03:31:16.935Z,4.20
2022-10-05T03:33:51.098Z,4.30
2022-10-05T03:36:42.418Z,4.65
2022-10-05T03:39:19.122Z,4.57
2022-10-05T03:42:06.082Z,3.58
2022-10-05T03:45:04.783Z,4.15
2022-10-05T03:48:09.500Z,5.88
2022-10-05T03:50:42.290Z,5.75
2022-10-05T03:53:21.794Z,4.70
2022-10-05T03:55:59.552Z,8.23
2022-10-05T03:58:52.830Z,5.70
2022-10-05T04:01:25.471Z,4.70
2022-10-05T04:03:58.178Z,4.03
2022-10-05T04:06:34.755Z,4.07
2022-10-05T04:09:07.461Z,9.82
2022-10-05T04:11:57.554Z,6.72
2022-10-05T04:14:30.865Z,3.75
2022-10-05T04:17:02.934Z,4.07
2022-10-05T04:19:40.313Z,4.60
2022-10-05T04:22:21.926Z,4.03
2022-10-05T04:25:14.007Z,5.57
2022-10-05T04:27:47.058Z,6.28
2022-10-05T04:30:18.814Z,5.53
2022-10-05T04:32:57.630Z,5.03
2022-10-05T04:36:01.912Z,4.10
2022-10-05T04:38:52.627Z,4.15
2022-10-05T04:42:00.380Z,3.95
2022-10-05T04:44:48.946Z,4.20
2022-10-05T04:47:26.677Z,3.88
2022-10-05T04:50:14.926Z,3.65
2022-10-05T04:52:54.263Z,3.67
2022-10-05T04:55:40.619Z,4.45
2022-10-05T04:58:31.488Z,4.65
2022-10-05T05:01:52.322Z,6.25
2022-10-05T05:04:33.521Z,6.80
2022-10-05T05:07:21.771Z,7.05
2022-10-05T05:10:00.232Z,7.10
2022-10-05T05:13:04.586Z,7.32
2022-10-05T05:18:39.428Z,8.02
2022-10-05T05:21:32.966Z,7.85
2022-10-05T05:24:11.887Z,7.50
2022-10-05T05:27:04.122Z,6.72
2022-10-05T05:29:43.637Z,7.35
2022-10-05T05:32:31.167Z,6.22
2022-10-05T05:35:11.656Z,5.97
2022-10-05T05:37:56.029Z,11.20
2022-10-05T05:40:32.796Z,8.68
2022-10-05T05:43:24.250Z,8.23
2022-10-05T05:46:02.553Z,5.90
2022-10-05T05:48:36.346Z,5.53
2022-10-05T05:51:09.346Z,5.30
2022-10-05T05:53:46.015Z,6.30
2022-10-05T05:56:21.270Z,5.75
2022-10-05T05:58:59.284Z,6.03
2022-10-05T06:01:34.707Z,7.10
2022-10-05T06:04:24.932Z,5.68
2022-10-05T06:06:56.096Z,6.55
2022-10-05T06:09:44.647Z,6.28
2022-10-05T06:12:29.097Z,6.00
2022-10-05T06:15:12.213Z,6.00
2022-10-05T06:17:47.241Z,5.53
2022-10-05T06:20:35.496Z,6.35
2022-10-05T06:23:10.360Z,6.47
2022-10-05T06:25:45.938Z,6.30
2022-10-05T06:28:16.103Z,5.85
2022-10-05T06:31:23.866Z,6.03
2022-10-05T06:34:17.146Z,6.75
2022-10-05T06:36:48.807Z,6.30
2022-10-05T06:39:55.484Z,5.25
2022-10-05T06:43:08.327Z,6.20
2022-10-05T06:46:00.159Z,7.00
2022-10-05T06:49:03.671Z,7.00
2022-10-05T06:51:55.201Z,5.97
2022-10-05T06:54:24.624Z,5.68
2022-10-05T06:57:15.789Z,8.50
2022-10-05T06:59:57.736Z,8.95
2022-10-05T07:02:42.231Z,9.50
2022-10-05T07:05:27.171Z,7.60
2022-10-05T07:08:17.567Z,7.80
2022-10-05T07:10:59.278Z,6.95
2022-10-05T07:13:56.858Z,6.15
2022-10-05T07:16:35.724Z,6.05
2022-10-05T07:19:23.911Z,6.47
2022-10-05T07:22:15.667Z,6.47
2022-10-05T07:25:10.203Z,6.82
2022-10-05T07:27:51.009Z,5.80
2022-10-05T07:30:19.908Z,5.70
2022-10-05T07:33:12.888Z,5.57
2022-10-05T07:36:12.398Z,6.72
2022-10-05T07:38:47.804Z,5.63
2022-10-05T07:41:21.387Z,5.60
2022-10-05T07:44:02.892Z,6.10
2022-10-05T07:46:51.816Z,6.15
2022-10-05T07:49:34.093Z,5.43
2022-10-05T07:52:05.283Z,5.78
2022-10-05T07:54:45.209Z,8.73
2022-10-05T07:57:44.054Z,11.48
2022-10-05T08:00:19.064Z,9.32
2022-10-05T08:02:49.623Z,8.55
2022-10-05T08:05:31.704Z,8.43
2022-10-05T08:08:11.652Z,6.65
2022-10-05T08:10:46.202Z,8.68
2022-10-05T08:13:29.767Z,8.15
2022-10-05T08:16:03.771Z,8.23
2022-10-05T08:19:05.930Z,8.68
2022-10-05T08:21:39.959Z,8.18
2022-10-05T08:24:14.130Z,6.85
2022-10-05T08:27:05.503Z,5.97
2022-10-05T08:29:35.252Z,5.90
2022-10-05T08:32:12.247Z,5.65
2022-10-05T08:34:51.617Z,5.30
2022-10-05T08:37:20.899Z,4.75
2022-10-05T08:40:09.026Z,4.88
2022-10-05T08:42:56.962Z,4.50
2022-10-05T08:45:44.944Z,4.22
2022-10-05T08:48:36.549Z,4.55
2022-10-05T08:51:09.386Z,3.92
2022-10-05T08:54:00.020Z,4.55
2022-10-05T08:56:35.478Z,3.70
2022-10-05T08:59:14.194Z,3.60
2022-10-05T09:02:08.858Z,3.80
2022-10-05T09:04:38.361Z,4.65
2022-10-05T09:07:37.614Z,3.80
2022-10-05T09:10:25.216Z,3.17
2022-10-05T09:13:13.596Z,2.60
2022-10-05T09:16:13.697Z,2.40
2022-10-05T09:19:07.236Z,2.60
2022-10-05T09:21:41.920Z,2.55
2022-10-05T09:24:14.271Z,2.58
2022-10-05T09:26:40.996Z,2.47
2022-10-05T09:29:58.767Z,2.60
2022-10-05T09:33:05.214Z,2.55
2022-10-05T09:35:51.772Z,2.80
2022-10-05T09:38:39.838Z,2.53
2022-10-05T09:41:44.272Z,2.30
2022-10-05T09:44:27.426Z,2.50
2022-10-05T09:46:59.804Z,3.00
2022-10-05T09:50:11.157Z,2.90
2022-10-05T09:52:53.133Z,2.75
2022-10-05T09:55:34.908Z,2.97
2022-10-05T09:58:28.188Z,2.90
2022-10-05T10:01:09.259Z,3.05
2022-10-05T10:04:13.575Z,3.08
2022-10-05T10:07:02.274Z,2.58
2022-10-05T10:10:16.115Z,2.75
2022-10-05T10:12:51.770Z,2.97
2022-10-05T10:15:31.216Z,2.90
2022-10-05T10:18:17.454Z,3.08
2022-10-05T10:21:03.231Z,2.92
2022-10-05T10:23:41.737Z,2.88
2022-10-05T10:26:30.550Z,2.97
2022-10-05T10:29:21.981Z,3.13
2022-10-05T10:32:00.428Z,2.97
2022-10-05T10:35:07.146Z,2.90
2022-10-05T10:37:37.155Z,2.40
2022-10-05T10:40:12.795Z,2.75
2022-10-05T10:42:46.372Z,3.30
2022-10-05T10:47:54.875Z,2.80
2022-10-05T10:50:33.639Z,3.05
2022-10-05T10:53:28.386Z,3.17
2022-10-05T10:56:25.800Z,3.20
2022-10-05T10:58:55.510Z,3.03
2022-10-05T11:01:49.210Z,3.58
2022-10-05T11:05:03.526Z,3.40
2022-10-05T11:07:37.614Z,3.28
2022-10-05T11:10:25.990Z,2.85
2022-10-05T11:13:10.794Z,3.42
2022-10-05T11:16:02.610Z,2.95
2022-10-05T11:18:38.731Z,3.60
2022-10-05T11:21:23.869Z,3.15
2022-10-05T11:24:12.609Z,3.13
2022-10-05T11:26:47.776Z,2.83
2022-10-05T11:29:29.809Z,3.38
2022-10-05T11:32:17.904Z,2.95
2022-10-05T11:35:41.274Z,3.28
2022-10-05T11:38:38.682Z,2.90
2022-10-05T11:41:36.030Z,3.17
2022-10-05T11:44:22.169Z,3.17
2022-10-05T11:47:26.526Z,2.75
2022-10-05T11:52:33.331Z,2.60
2022-10-05T11:55:24.204Z,2.83
2022-10-05T11:58:06.682Z,2.65
2022-10-05T12:00:44.186Z,2.75
2022-10-05T12:03:31.994Z,2.67
2022-10-05T12:06:38.447Z,3.08
2022-10-05T12:09:34.216Z,3.13
2022-10-05T12:12:00.923Z,3.35
2022-10-05T12:14:34.369Z,3.00
2022-10-05T12:19:42.007Z,2.80
2022-10-05T12:22:31.478Z,2.85
2022-10-05T12:25:11.836Z,3.22
2022-10-05T12:27:43.991Z,3.00
2022-10-05T12:30:32.019Z,2.75
2022-10-05T12:33:02.435Z,2.85
2022-10-05T12:35:48.958Z,2.70
2022-10-05T12:38:28.707Z,2.55
2022-10-05T12:41:05.385Z,2.85
2022-10-05T12:43:55.215Z,2.20
2022-10-05T12:46:33.863Z,2.53
2022-10-05T12:49:36.607Z,2.60
2022-10-05T12:52:11.517Z,2.78
2022-10-05T12:55:10.279Z,2.70
2022-10-05T12:58:05.740Z,2.78
2022-10-05T13:00:38.984Z,2.90
2022-10-05T13:05:58.950Z,2.58
2022-10-05T13:09:02.865Z,2.42
2022-10-05T13:11:49.587Z,2.67
2022-10-05T13:14:47.234Z,2.38
2022-10-05T13:17:34.046Z,2.47
2022-10-05T13:20:16.596Z,2.70
2022-10-05T13:22:48.300Z,2.60
2022-10-05T13:25:29.190Z,3.30
2022-10-05T13:28:27.795Z,2.67
2022-10-05T13:31:07.090Z,3.42
2022-10-05T13:33:43.364Z,2.70
2022-10-05T13:36:40.567Z,2.88
2022-10-05T13:39:30.466Z,2.65
2022-10-05T13:42:06.243Z,3.00
2022-10-05T13:44:58.841Z,2.67
2022-10-05T13:47:56.649Z,2.78
2022-10-05T13:50:29.809Z,3.00
2022-10-05T13:53:11.042Z,2.80
2022-10-05T13:55:45.963Z,2.78
2022-10-05T13:58:41.357Z,2.60
2022-10-05T14:01:35.344Z,2.85
2022-10-05T14:06:37.686Z,2.78
2022-10-05T14:09:04.808Z,2.70
2022-10-05T14:11:34.787Z,2.80
2022-10-05T14:14:14.427Z,3.10
2022-10-05T14:16:52.448Z,2.55
2022-10-05T14:19:23.560Z,2.90
2022-10-05T14:22:23.912Z,2.70
2022-10-05T14:25:18.239Z,2.78
2022-10-05T14:27:54.534Z,2.78
2022-10-05T14:30:25.640Z,2.78
2022-10-05T14:33:13.959Z,2.80
2022-10-05T14:35:56.386Z,2.63
2022-10-05T14:38:29.352Z,2.80
2022-10-05T14:41:08.167Z,2.85
2022-10-05T14:43:35.387Z,3.00
2022-10-05T14:46:28.002Z,3.55
2022-10-05T14:49:24.232Z,2.92
2022-10-05T14:51:53.376Z,3.22
2022-10-05T14:54:52.325Z,2.92
2022-10-05T14:57:40.358Z,2.97
2022-10-05T15:00:13.027Z,2.78
2022-10-05T15:03:18.761Z,2.30
2022-10-05T15:05:53.566Z,2.65
2022-10-05T15:08:22.924Z,2.42
2022-10-05T15:10:56.526Z,2.55
2022-10-05T15:13:28.897Z,2.55
2022-10-05T15:16:02.943Z,3.00
2022-10-05T15:18:45.298Z,2.70
2022-10-05T15:21:20.946Z,3.13
2022-10-05T15:23:57.490Z,2.50
2022-10-05T15:26:50.555Z,2.22
2022-10-05T15:29:42.370Z,2.40
2022-10-05T15:32:41.539Z,2.60
2022-10-05T15:35:26.080Z,2.40
2022-10-05T15:38:03.157Z,2.38
2022-10-05T15:40:51.709Z,2.42
2022-10-05T15:43:21.488Z,2.60
2022-10-05T15:46:01.041Z,2.58
2022-10-05T15:48:49.592Z,2.63
2022-10-05T15:51:29.246Z,2.50
2022-10-05T15:54:25.314Z,2.88
2022-10-05T15:57:04.565Z,3.22
2022-10-05T15:59:41.486Z,2.83
2022-10-05T16:02:19.550Z,3.22
2022-10-05T16:05:12.082Z,3.53
2022-10-05T16:08:12.302Z,3.63
2022-10-05T16:10:43.893Z,3.70
2022-10-05T16:13:34.927Z,3.80
2022-10-05T16:16:27.819Z,3.95
2022-10-05T16:19:16.596Z,5.88
2022-10-05T16:22:10.994Z,5.75
2022-10-05T16:24:58.909Z,5.57
2022-10-05T16:27:34.799Z,6.00
2022-10-05T16:30:01.515Z,5.82
2022-10-05T16:32:59.654Z,5.35
2022-10-05T16:35:50.137Z,3.45
2022-10-05T16:38:45.848Z,3.45
2022-10-05T16:41:28.011Z,4.80
2022-10-05T16:44:18.875Z,5.95
2022-10-05T16:47:05.317Z,16.55
2022-10-05T16:49:38.215Z,16.30
2022-10-05T16:52:08.427Z,12.52
2022-10-05T16:54:56.018Z,8.18
2022-10-05T16:57:40.327Z,5.80
2022-10-05T17:00:20.788Z,6.28
2022-10-05T17:03:02.646Z,6.10
2022-10-05T17:05:47.953Z,5.80
2022-10-05T17:08:51.699Z,5.57
2022-10-05T17:11:39.490Z,6.53
2022-10-05T17:14:20.623Z,5.93
2022-10-05T17:17:15.781Z,5.88
2022-10-05T17:19:55.716Z,7.30
2022-10-05T17:22:39.743Z,6.97
2022-10-05T17:25:19.100Z,6.72
2022-10-05T17:27:55.506Z,6.45
2022-10-05T17:30:35.881Z,5.30
2022-10-05T17:33:20.625Z,5.10
2022-10-05T17:35:51.725Z,5.75
2022-10-05T17:38:30.650Z,5.82
2022-10-05T17:41:00.078Z,5.72
2022-10-05T17:43:28.793Z,5.80
2022-10-05T17:46:00.656Z,7.45
2022-10-05T17:48:49.141Z,7.40
2022-10-05T17:51:48.306Z,5.18
2022-10-05T17:55:02.670Z,3.70
2022-10-05T18:00:00.444Z,4.28
2022-10-05T18:02:36.821Z,3.53
2022-10-05T18:05:04.449Z,3.40
2022-10-05T18:07:33.742Z,4.70
2022-10-05T18:10:29.722Z,3.78
2022-10-05T18:12:59.431Z,4.65
2022-10-05T18:15:26.088Z,6.60
2022-10-05T18:17:58.621Z,6.40
2022-10-05T18:20:33.566Z,6.17
2022-10-05T18:23:03.645Z,6.20
2022-10-05T18:26:06.053Z,6.35
2022-10-05T18:29:13.884Z,5.03
2022-10-05T18:31:55.156Z,4.88
2022-10-05T18:34:39.315Z,4.88
2022-10-05T18:37:07.161Z,4.28
2022-10-05T18:39:52.388Z,4.25
2022-10-05T18:42:38.338Z,4.72
2022-10-05T18:45:27.984Z,5.45
2022-10-05T18:48:12.864Z,5.60
2022-10-05T18:51:10.639Z,5.80
2022-10-05T18:53:50.984Z,4.90
2022-10-05T18:56:39.357Z,5.55
2022-10-05T18:59:24.049Z,5.75
2022-10-05T19:02:02.538Z,6.55
2022-10-05T19:05:23.865Z,7.43
2022-10-05T19:08:11.132Z,5.63
2022-10-05T19:11:04.709Z,5.00
2022-10-05T19:14:02.655Z,5.32
2022-10-05T19:16:44.605Z,4.80
2022-10-05T19:19:29.455Z,5.05
2022-10-05T19:22:06.718Z,4.90
2022-10-05T19:24:58.491Z,4.60
2022-10-05T19:27:55.311Z,5.90
2022-10-05T19:30:30.844Z,6.43
2022-10-05T19:33:22.674Z,5.10
2022-10-05T19:35:58.237Z,6.50
2022-10-05T19:38:40.388Z,6.25
2022-10-05T19:41:17.731Z,4.05
2022-10-05T19:43:50.550Z,4.20
2022-10-05T19:46:33.007Z,5.53
2022-10-05T19:49:00.322Z,5.05
2022-10-05T19:51:30.471Z,6.43
2022-10-05T19:54:13.975Z,6.72
2022-10-05T19:56:52.842Z,5.93
2022-10-05T19:59:31.330Z,5.75
2022-10-05T20:01:59.464Z,4.97
2022-10-05T20:04:32.012Z,5.53
2022-10-05T20:07:00.352Z,5.10
2022-10-05T20:09:27.214Z,5.32
2022-10-05T20:11:54.728Z,6.28
2022-10-05T20:14:30.166Z,6.05
2022-10-05T20:17:44.958Z,6.40
2022-10-05T20:20:36.154Z,11.10
2022-10-05T20:23:23.713Z,9.68
2022-10-05T20:26:09.762Z,8.93
2022-10-05T20:28:37.090Z,8.32
2022-10-05T20:31:07.314Z,8.13
2022-10-05T20:33:34.457Z,8.80
2022-10-05T20:36:03.506Z,9.20
2022-10-05T20:38:31.647Z,10.18
2022-10-05T20:40:58.656Z,11.02
2022-10-05T20:43:26.391Z,11.10
2022-10-05T20:45:53.823Z,10.80
2022-10-05T20:48:21.198Z,11.65
2022-10-05T20:50:48.194Z,12.48
2022-10-05T20:53:14.913Z,18.33
2022-10-05T20:55:43.025Z,12.30
2022-10-05T20:58:11.020Z,12.77
2022-10-05T21:00:56.356Z,12.00
2022-10-05T21:03:26.147Z,12.70
2022-10-05T21:05:52.958Z,12.40
2022-10-05T21:08:19.696Z,10.30
2022-10-05T21:10:46.396Z,10.82
2022-10-05T21:13:13.208Z,10.57
2022-10-05T21:15:39.949Z,10.15
2022-10-05T21:18:06.652Z,7.25
2022-10-05T21:20:33.437Z,7.10
2022-10-05T21:23:00.733Z,7.57
2022-10-05T21:25:27.878Z,7.80
2022-10-05T21:27:54.673Z,9.00
2022-10-05T21:30:21.578Z,9.55
2022-10-05T21:32:48.557Z,9.70
2022-10-05T21:35:15.576Z,10.13
2022-10-05T21:37:42.385Z,9.55
2022-10-05T21:40:09.625Z,10.25
2022-10-05T21:42:36.402Z,10.27
2022-10-05T21:45:03.585Z,9.45
2022-10-05T21:47:30.710Z,8.13
2022-10-05T21:49:57.570Z,9.52
2022-10-05T21:52:24.328Z,7.97
2022-10-05T21:54:51.127Z,8.52
2022-10-05T21:57:18.576Z,8.57
2022-10-05T21:59:45.435Z,7.28
2022-10-05T22:02:12.164Z,8.68
2022-10-05T22:04:38.927Z,7.97
2022-10-05T22:07:19.686Z,7.85
2022-10-05T22:09:50.162Z,7.97
2022-10-05T22:12:19.798Z,6.93
2022-10-05T22:14:47.054Z,6.80
2022-10-05T22:17:22.763Z,7.35
2022-10-05T22:19:49.995Z,6.65
2022-10-05T22:22:17.215Z,6.55
2022-10-05T22:24:46.463Z,5.78
2022-10-05T22:27:14.133Z,5.80
2022-10-05T22:29:42.224Z,6.07
2022-10-05T22:32:09.201Z,5.65
2022-10-05T22:34:36.040Z,5.88
2022-10-05T22:37:04.572Z,5.03
2022-10-05T22:39:31.493Z,5.97
2022-10-05T22:41:58.747Z,6.22
2022-10-05T22:44:28.597Z,7.55
2022-10-05T22:46:55.520Z,7.93
2022-10-05T22:49:22.300Z,7.03
2022-10-05T22:51:49.311Z,7.15
2022-10-05T22:54:16.599Z,7.63
2022-10-05T22:56:43.870Z,6.43
2022-10-05T22:59:10.906Z,5.35
2022-10-05T23:01:37.867Z,4.88
2022-10-05T23:04:04.836Z,6.10
2022-10-05T23:06:31.714Z,6.18
2022-10-05T23:08:58.489Z,6.28
2022-10-05T23:11:26.920Z,6.00
2022-10-05T23:13:58.584Z,6.20
2022-10-05T23:16:27.338Z,5.65
2022-10-05T23:18:55.319Z,6.38
2022-10-05T23:21:24.933Z,5.60
2022-10-05T23:23:51.717Z,6.00
2022-10-05T23:26:20.934Z,6.15
2022-10-05T23:28:49.150Z,5.95
2022-10-05T23:31:18.909Z,6.47
2022-10-05T23:33:46.003Z,5.85
2022-10-05T23:36:16.792Z,5.63
2022-10-05T23:38:44.056Z,5.85
2022-10-05T23:41:11.080Z,6.38
2022-10-05T23:43:38.043Z,5.85
2022-10-05T23:46:06.308Z,6.40
2022-10-05T23:48:34.101Z,6.85
2022-10-05T23:51:00.891Z,7.57
2022-10-05T23:53:27.805Z,7.13
2022-10-05T23:55:55.104Z,7.07
2022-10-05T23:58:22.972Z,7.35
